sensor_id;sensor_type;location;lat;lon;timestamp;P1;durP1;ratioP1;P2;durP2;ratioP2
54464;SDS011;40374;49.480;20.016;2023-05-10T00:00:51;25.48;;;10.75;;
54464;SDS011;40374;49.480;20.016;2023-05-10T00:03:19;26.38;;;11.15;;
54464;SDS011;40374;49.480;20.016;2023-05-10T00:05:46;24.45;;;12.40;;
54464;SDS011;40374;49.480;20.016;2023-05-10T00:08:14;32.20;;;13.13;;
54464;SDS011;40374;49.480;20.016;2023-05-10T00:10:41;32.45;;;13.00;;
54464;SDS011;40374;49.480;20.016;2023-05-10T00:13:08;29.02;;;13.13;;
54464;SDS011;40374;49.480;20.016;2023-05-10T00:15:36;32.00;;;14.30;;
54464;SDS011;40374;49.480;20.016;2023-05-10T00:18:03;41.10;;;14.00;;
54464;SDS011;40374;49.480;20.016;2023-05-10T00:20:30;53.67;;;19.15;;
54464;SDS011;40374;49.480;20.016;2023-05-10T00:22:58;51.00;;;22.63;;
54464;SDS011;40374;49.480;20.016;2023-05-10T00:25:25;59.47;;;22.42;;
54464;SDS011;40374;49.480;20.016;2023-05-10T00:27:53;51.42;;;21.02;;
54464;SDS011;40374;49.480;20.016;2023-05-10T00:30:22;37.40;;;18.10;;
54464;SDS011;40374;49.480;20.016;2023-05-10T00:32:49;34.05;;;14.32;;
54464;SDS011;40374;49.480;20.016;2023-05-10T00:35:18;33.67;;;13.52;;
54464;SDS011;40374;49.480;20.016;2023-05-10T00:37:47;28.55;;;12.40;;
54464;SDS011;40374;49.480;20.016;2023-05-10T00:40:14;30.63;;;11.90;;
54464;SDS011;40374;49.480;20.016;2023-05-10T00:42:46;28.60;;;11.15;;
54464;SDS011;40374;49.480;20.016;2023-05-10T00:45:14;23.45;;;11.43;;
54464;SDS011;40374;49.480;20.016;2023-05-10T00:47:41;27.15;;;12.20;;
54464;SDS011;40374;49.480;20.016;2023-05-10T00:50:09;28.58;;;13.02;;
54464;SDS011;40374;49.480;20.016;2023-05-10T00:52:37;30.98;;;13.70;;
54464;SDS011;40374;49.480;20.016;2023-05-10T00:55:04;32.15;;;15.48;;
54464;SDS011;40374;49.480;20.016;2023-05-10T00:57:33;36.08;;;16.45;;
54464;SDS011;40374;49.480;20.016;2023-05-10T01:00:01;44.22;;;16.58;;
54464;SDS011;40374;49.480;20.016;2023-05-10T01:02:30;39.78;;;16.45;;
54464;SDS011;40374;49.480;20.016;2023-05-10T01:04:57;36.67;;;16.33;;
54464;SDS011;40374;49.480;20.016;2023-05-10T01:07:25;42.13;;;18.55;;
54464;SDS011;40374;49.480;20.016;2023-05-10T01:09:52;48.72;;;19.33;;
54464;SDS011;40374;49.480;20.016;2023-05-10T01:12:20;38.35;;;18.63;;
54464;SDS011;40374;49.480;20.016;2023-05-10T01:14:48;46.85;;;20.98;;
54464;SDS011;40374;49.480;20.016;2023-05-10T01:17:15;35.65;;;14.73;;
54464;SDS011;40374;49.480;20.016;2023-05-10T01:19:43;40.65;;;16.80;;
54464;SDS011;40374;49.480;20.016;2023-05-10T01:33:46;34.30;;;13.05;;
54464;SDS011;40374;49.480;20.016;2023-05-10T01:36:21;30.25;;;13.27;;
54464;SDS011;40374;49.480;20.016;2023-05-10T01:38:57;39.25;;;16.15;;
54464;SDS011;40374;49.480;20.016;2023-05-10T01:44:52;41.45;;;16.27;;
54464;SDS011;40374;49.480;20.016;2023-05-10T01:50:12;39.70;;;16.92;;
54464;SDS011;40374;49.480;20.016;2023-05-10T01:52:44;37.78;;;16.77;;
54464;SDS011;40374;49.480;20.016;2023-05-10T01:55:19;40.38;;;17.17;;
54464;SDS011;40374;49.480;20.016;2023-05-10T01:57:51;38.10;;;17.73;;
54464;SDS011;40374;49.480;20.016;2023-05-10T02:00:25;39.45;;;17.25;;
54464;SDS011;40374;49.480;20.016;2023-05-10T02:02:54;40.80;;;17.40;;
54464;SDS011;40374;49.480;20.016;2023-05-10T02:05:23;40.92;;;17.83;;
54464;SDS011;40374;49.480;20.016;2023-05-10T02:07:52;38.33;;;15.77;;
54464;SDS011;40374;49.480;20.016;2023-05-10T02:10:19;42.22;;;16.17;;
54464;SDS011;40374;49.480;20.016;2023-05-10T02:12:47;42.65;;;17.98;;
54464;SDS011;40374;49.480;20.016;2023-05-10T02:15:17;53.65;;;22.65;;
54464;SDS011;40374;49.480;20.016;2023-05-10T02:17:50;60.70;;;24.55;;
54464;SDS011;40374;49.480;20.016;2023-05-10T02:20:22;46.35;;;21.02;;
54464;SDS011;40374;49.480;20.016;2023-05-10T02:22:51;43.65;;;18.83;;
54464;SDS011;40374;49.480;20.016;2023-05-10T02:25:21;41.58;;;16.98;;
54464;SDS011;40374;49.480;20.016;2023-05-10T02:27:50;38.03;;;17.23;;
54464;SDS011;40374;49.480;20.016;2023-05-10T02:30:21;38.38;;;14.85;;
54464;SDS011;40374;49.480;20.016;2023-05-10T02:32:50;36.17;;;14.50;;
54464;SDS011;40374;49.480;20.016;2023-05-10T02:35:19;31.05;;;14.38;;
54464;SDS011;40374;49.480;20.016;2023-05-10T02:37:47;33.90;;;14.73;;
54464;SDS011;40374;49.480;20.016;2023-05-10T02:40:15;38.35;;;15.75;;
54464;SDS011;40374;49.480;20.016;2023-05-10T02:42:44;34.83;;;15.40;;
54464;SDS011;40374;49.480;20.016;2023-05-10T02:45:18;40.22;;;16.30;;
54464;SDS011;40374;49.480;20.016;2023-05-10T02:47:47;37.50;;;16.17;;
54464;SDS011;40374;49.480;20.016;2023-05-10T02:50:15;36.55;;;15.88;;
54464;SDS011;40374;49.480;20.016;2023-05-10T02:52:47;34.92;;;13.85;;
54464;SDS011;40374;49.480;20.016;2023-05-10T02:55:17;36.83;;;15.73;;
54464;SDS011;40374;49.480;20.016;2023-05-10T02:57:52;38.03;;;14.88;;
54464;SDS011;40374;49.480;20.016;2023-05-10T03:00:25;36.88;;;15.77;;
54464;SDS011;40374;49.480;20.016;2023-05-10T03:02:53;37.33;;;15.85;;
54464;SDS011;40374;49.480;20.016;2023-05-10T03:05:21;40.83;;;17.48;;
54464;SDS011;40374;49.480;20.016;2023-05-10T03:07:49;37.63;;;16.30;;
54464;SDS011;40374;49.480;20.016;2023-05-10T03:10:18;36.03;;;15.50;;
54464;SDS011;40374;49.480;20.016;2023-05-10T03:13:07;33.92;;;15.55;;
54464;SDS011;40374;49.480;20.016;2023-05-10T03:15:43;49.97;;;17.10;;
54464;SDS011;40374;49.480;20.016;2023-05-10T03:18:26;39.55;;;16.85;;
54464;SDS011;40374;49.480;20.016;2023-05-10T03:21:02;36.55;;;16.13;;
54464;SDS011;40374;49.480;20.016;2023-05-10T03:23:45;39.33;;;15.73;;
54464;SDS011;40374;49.480;20.016;2023-05-10T03:26:17;28.95;;;14.60;;
54464;SDS011;40374;49.480;20.016;2023-05-10T03:28:50;35.47;;;15.57;;
54464;SDS011;40374;49.480;20.016;2023-05-10T03:31:20;37.30;;;15.20;;
54464;SDS011;40374;49.480;20.016;2023-05-10T03:33:48;36.60;;;14.65;;
54464;SDS011;40374;49.480;20.016;2023-05-10T03:36:22;41.05;;;15.93;;
54464;SDS011;40374;49.480;20.016;2023-05-10T03:38:49;34.78;;;15.45;;
54464;SDS011;40374;49.480;20.016;2023-05-10T03:41:17;35.97;;;15.77;;
54464;SDS011;40374;49.480;20.016;2023-05-10T03:43:45;43.80;;;17.63;;
54464;SDS011;40374;49.480;20.016;2023-05-10T03:46:12;38.53;;;16.80;;
54464;SDS011;40374;49.480;20.016;2023-05-10T03:48:40;39.50;;;17.20;;
54464;SDS011;40374;49.480;20.016;2023-05-10T03:51:07;38.15;;;17.50;;
54464;SDS011;40374;49.480;20.016;2023-05-10T03:53:35;37.78;;;16.90;;
54464;SDS011;40374;49.480;20.016;2023-05-10T03:56:02;38.75;;;16.73;;
54464;SDS011;40374;49.480;20.016;2023-05-10T03:58:30;41.28;;;17.08;;
54464;SDS011;40374;49.480;20.016;2023-05-10T04:00:58;41.28;;;15.80;;
54464;SDS011;40374;49.480;20.016;2023-05-10T04:03:25;36.58;;;16.73;;
54464;SDS011;40374;49.480;20.016;2023-05-10T04:06:01;41.63;;;16.98;;
54464;SDS011;40374;49.480;20.016;2023-05-10T04:08:29;39.80;;;16.88;;
54464;SDS011;40374;49.480;20.016;2023-05-10T04:11:07;37.58;;;15.88;;
54464;SDS011;40374;49.480;20.016;2023-05-10T04:13:35;39.70;;;15.35;;
54464;SDS011;40374;49.480;20.016;2023-05-10T04:16:04;35.13;;;16.35;;
54464;SDS011;40374;49.480;20.016;2023-05-10T04:18:31;40.08;;;20.10;;
54464;SDS011;40374;49.480;20.016;2023-05-10T04:20:59;35.05;;;15.90;;
54464;SDS011;40374;49.480;20.016;2023-05-10T04:23:27;32.88;;;17.73;;
54464;SDS011;40374;49.480;20.016;2023-05-10T04:26:00;38.90;;;15.77;;
54464;SDS011;40374;49.480;20.016;2023-05-10T04:28:28;44.92;;;15.90;;
54464;SDS011;40374;49.480;20.016;2023-05-10T04:31:06;39.67;;;15.80;;
54464;SDS011;40374;49.480;20.016;2023-05-10T04:33:34;30.52;;;14.00;;
54464;SDS011;40374;49.480;20.016;2023-05-10T04:36:02;36.78;;;14.30;;
54464;SDS011;40374;49.480;20.016;2023-05-10T04:38:30;40.90;;;15.25;;
54464;SDS011;40374;49.480;20.016;2023-05-10T04:41:05;37.17;;;18.73;;
54464;SDS011;40374;49.480;20.016;2023-05-10T04:43:34;36.63;;;17.90;;
54464;SDS011;40374;49.480;20.016;2023-05-10T04:46:01;43.92;;;21.00;;
54464;SDS011;40374;49.480;20.016;2023-05-10T04:48:29;41.42;;;17.98;;
54464;SDS011;40374;49.480;20.016;2023-05-10T04:50:56;37.78;;;16.52;;
54464;SDS011;40374;49.480;20.016;2023-05-10T04:53:24;41.38;;;16.30;;
54464;SDS011;40374;49.480;20.016;2023-05-10T04:55:51;40.53;;;16.08;;
54464;SDS011;40374;49.480;20.016;2023-05-10T04:58:19;35.40;;;16.13;;
54464;SDS011;40374;49.480;20.016;2023-05-10T05:00:46;37.50;;;15.52;;
54464;SDS011;40374;49.480;20.016;2023-05-10T05:03:14;40.53;;;15.85;;
54464;SDS011;40374;49.480;20.016;2023-05-10T05:05:43;35.78;;;18.38;;
54464;SDS011;40374;49.480;20.016;2023-05-10T05:08:10;42.90;;;19.95;;
54464;SDS011;40374;49.480;20.016;2023-05-10T05:10:41;37.58;;;19.45;;
54464;SDS011;40374;49.480;20.016;2023-05-10T05:13:08;35.33;;;17.92;;
54464;SDS011;40374;49.480;20.016;2023-05-10T05:15:36;42.45;;;19.35;;
54464;SDS011;40374;49.480;20.016;2023-05-10T05:18:03;50.72;;;21.75;;
54464;SDS011;40374;49.480;20.016;2023-05-10T05:20:34;47.03;;;21.85;;
54464;SDS011;40374;49.480;20.016;2023-05-10T05:23:01;45.22;;;21.48;;
54464;SDS011;40374;49.480;20.016;2023-05-10T05:25:29;43.67;;;19.55;;
54464;SDS011;40374;49.480;20.016;2023-05-10T05:27:56;39.38;;;20.02;;
54464;SDS011;40374;49.480;20.016;2023-05-10T05:30:24;50.13;;;21.50;;
54464;SDS011;40374;49.480;20.016;2023-05-10T05:32:51;48.05;;;19.73;;
54464;SDS011;40374;49.480;20.016;2023-05-10T05:35:19;42.05;;;21.33;;
54464;SDS011;40374;49.480;20.016;2023-05-10T05:37:46;36.10;;;17.15;;
54464;SDS011;40374;49.480;20.016;2023-05-10T05:40:15;28.33;;;13.15;;
54464;SDS011;40374;49.480;20.016;2023-05-10T05:42:43;38.45;;;17.92;;
54464;SDS011;40374;49.480;20.016;2023-05-10T05:45:11;39.08;;;19.23;;
54464;SDS011;40374;49.480;20.016;2023-05-10T05:47:43;39.78;;;18.55;;
54464;SDS011;40374;49.480;20.016;2023-05-10T05:50:11;19.38;;;8.43;;
54464;SDS011;40374;49.480;20.016;2023-05-10T05:52:39;10.50;;;5.65;;
54464;SDS011;40374;49.480;20.016;2023-05-10T05:55:06;9.30;;;4.93;;
54464;SDS011;40374;49.480;20.016;2023-05-10T05:57:34;8.98;;;4.47;;
54464;SDS011;40374;49.480;20.016;2023-05-10T06:00:01;10.13;;;4.20;;
54464;SDS011;40374;49.480;20.016;2023-05-10T06:02:38;9.13;;;3.80;;
54464;SDS011;40374;49.480;20.016;2023-05-10T06:05:06;13.13;;;4.05;;
54464;SDS011;40374;49.480;20.016;2023-05-10T06:07:34;9.50;;;3.13;;
54464;SDS011;40374;49.480;20.016;2023-05-10T06:10:02;11.88;;;3.83;;
54464;SDS011;40374;49.480;20.016;2023-05-10T06:12:30;19.75;;;8.65;;
54464;SDS011;40374;49.480;20.016;2023-05-10T06:14:57;30.05;;;12.55;;
54464;SDS011;40374;49.480;20.016;2023-05-10T06:17:25;43.55;;;17.92;;
54464;SDS011;40374;49.480;20.016;2023-05-10T06:19:52;60.20;;;25.83;;
54464;SDS011;40374;49.480;20.016;2023-05-10T06:22:24;29.38;;;12.98;;
54464;SDS011;40374;49.480;20.016;2023-05-10T06:24:51;16.60;;;6.78;;
54464;SDS011;40374;49.480;20.016;2023-05-10T06:27:19;19.45;;;10.35;;
54464;SDS011;40374;49.480;20.016;2023-05-10T06:29:47;10.63;;;5.18;;
54464;SDS011;40374;49.480;20.016;2023-05-10T06:32:20;10.77;;;5.70;;
54464;SDS011;40374;49.480;20.016;2023-05-10T06:34:47;9.90;;;4.18;;
54464;SDS011;40374;49.480;20.016;2023-05-10T06:37:15;8.00;;;3.45;;
54464;SDS011;40374;49.480;20.016;2023-05-10T06:39:42;4.15;;;3.35;;
54464;SDS011;40374;49.480;20.016;2023-05-10T06:42:10;7.35;;;4.55;;
54464;SDS011;40374;49.480;20.016;2023-05-10T06:44:37;8.75;;;3.88;;
54464;SDS011;40374;49.480;20.016;2023-05-10T06:47:04;5.72;;;3.65;;
54464;SDS011;40374;49.480;20.016;2023-05-10T06:49:32;5.18;;;3.30;;
54464;SDS011;40374;49.480;20.016;2023-05-10T06:52:00;11.32;;;3.75;;
54464;SDS011;40374;49.480;20.016;2023-05-10T06:54:27;14.63;;;4.68;;
54464;SDS011;40374;49.480;20.016;2023-05-10T06:56:55;13.75;;;3.92;;
54464;SDS011;40374;49.480;20.016;2023-05-10T06:59:36;6.70;;;3.13;;
54464;SDS011;40374;49.480;20.016;2023-05-10T07:02:06;10.23;;;3.38;;
54464;SDS011;40374;49.480;20.016;2023-05-10T07:04:35;4.90;;;3.08;;
54464;SDS011;40374;49.480;20.016;2023-05-10T07:07:06;6.47;;;3.03;;
54464;SDS011;40374;49.480;20.016;2023-05-10T07:09:33;4.28;;;2.75;;
54464;SDS011;40374;49.480;20.016;2023-05-10T07:12:01;4.40;;;3.50;;
54464;SDS011;40374;49.480;20.016;2023-05-10T07:14:28;6.38;;;2.58;;
54464;SDS011;40374;49.480;20.016;2023-05-10T07:16:56;7.28;;;2.90;;
54464;SDS011;40374;49.480;20.016;2023-05-10T07:19:27;5.78;;;3.55;;
54464;SDS011;40374;49.480;20.016;2023-05-10T07:22:08;5.82;;;3.67;;
54464;SDS011;40374;49.480;20.016;2023-05-10T07:24:38;10.27;;;3.38;;
54464;SDS011;40374;49.480;20.016;2023-05-10T07:27:08;19.98;;;4.00;;
54464;SDS011;40374;49.480;20.016;2023-05-10T07:29:50;6.93;;;2.70;;
54464;SDS011;40374;49.480;20.016;2023-05-10T07:32:17;7.25;;;3.30;;
54464;SDS011;40374;49.480;20.016;2023-05-10T07:34:49;8.98;;;3.30;;
54464;SDS011;40374;49.480;20.016;2023-05-10T07:37:18;6.13;;;2.42;;
54464;SDS011;40374;49.480;20.016;2023-05-10T07:39:46;4.93;;;2.53;;
54464;SDS011;40374;49.480;20.016;2023-05-10T07:42:14;6.90;;;2.65;;
54464;SDS011;40374;49.480;20.016;2023-05-10T07:44:41;7.30;;;2.65;;
54464;SDS011;40374;49.480;20.016;2023-05-10T07:47:10;6.00;;;2.33;;
54464;SDS011;40374;49.480;20.016;2023-05-10T07:49:43;4.25;;;2.63;;
54464;SDS011;40374;49.480;20.016;2023-05-10T07:52:17;3.15;;;2.42;;
54464;SDS011;40374;49.480;20.016;2023-05-10T07:54:48;4.47;;;2.58;;
54464;SDS011;40374;49.480;20.016;2023-05-10T07:57:26;5.45;;;2.63;;
54464;SDS011;40374;49.480;20.016;2023-05-10T07:59:54;7.30;;;2.70;;
54464;SDS011;40374;49.480;20.016;2023-05-10T08:02:25;4.43;;;2.50;;
54464;SDS011;40374;49.480;20.016;2023-05-10T08:04:57;9.10;;;2.33;;
54464;SDS011;40374;49.480;20.016;2023-05-10T08:07:24;7.80;;;2.67;;
54464;SDS011;40374;49.480;20.016;2023-05-10T08:09:52;6.63;;;2.25;;
54464;SDS011;40374;49.480;20.016;2023-05-10T08:12:19;9.15;;;2.22;;
54464;SDS011;40374;49.480;20.016;2023-05-10T08:14:46;6.72;;;2.35;;
54464;SDS011;40374;49.480;20.016;2023-05-10T08:17:14;6.82;;;2.70;;
54464;SDS011;40374;49.480;20.016;2023-05-10T08:19:42;3.30;;;2.40;;
54464;SDS011;40374;49.480;20.016;2023-05-10T08:22:10;7.35;;;2.20;;
54464;SDS011;40374;49.480;20.016;2023-05-10T08:24:37;3.67;;;1.52;;
54464;SDS011;40374;49.480;20.016;2023-05-10T08:27:05;4.50;;;2.25;;
54464;SDS011;40374;49.480;20.016;2023-05-10T08:29:33;7.50;;;2.00;;
54464;SDS011;40374;49.480;20.016;2023-05-10T08:32:15;2.80;;;1.90;;
54464;SDS011;40374;49.480;20.016;2023-05-10T08:34:43;25.83;;;2.53;;
54464;SDS011;40374;49.480;20.016;2023-05-10T08:37:11;4.88;;;2.13;;
54464;SDS011;40374;49.480;20.016;2023-05-10T08:39:40;6.13;;;2.17;;
54464;SDS011;40374;49.480;20.016;2023-05-10T08:42:08;4.43;;;2.10;;
54464;SDS011;40374;49.480;20.016;2023-05-10T08:44:36;7.05;;;2.22;;
54464;SDS011;40374;49.480;20.016;2023-05-10T08:47:05;3.97;;;2.00;;
54464;SDS011;40374;49.480;20.016;2023-05-10T08:49:34;5.22;;;2.95;;
54464;SDS011;40374;49.480;20.016;2023-05-10T08:52:03;2.38;;;1.85;;
54464;SDS011;40374;49.480;20.016;2023-05-10T08:54:32;4.25;;;1.90;;
54464;SDS011;40374;49.480;20.016;2023-05-10T08:57:00;4.38;;;1.75;;
54464;SDS011;40374;49.480;20.016;2023-05-10T08:59:28;6.07;;;2.58;;
54464;SDS011;40374;49.480;20.016;2023-05-10T09:01:59;4.40;;;1.83;;
54464;SDS011;40374;49.480;20.016;2023-05-10T09:04:28;6.65;;;1.90;;
54464;SDS011;40374;49.480;20.016;2023-05-10T09:06:58;4.95;;;2.20;;
54464;SDS011;40374;49.480;20.016;2023-05-10T09:09:25;3.22;;;1.80;;
54464;SDS011;40374;49.480;20.016;2023-05-10T09:11:54;4.78;;;1.88;;
54464;SDS011;40374;49.480;20.016;2023-05-10T09:14:26;7.78;;;2.03;;
54464;SDS011;40374;49.480;20.016;2023-05-10T09:17:22;3.75;;;1.90;;
54464;SDS011;40374;49.480;20.016;2023-05-10T09:19:56;8.80;;;1.73;;
54464;SDS011;40374;49.480;20.016;2023-05-10T09:22:28;4.60;;;2.10;;
54464;SDS011;40374;49.480;20.016;2023-05-10T09:25:03;4.03;;;2.03;;
54464;SDS011;40374;49.480;20.016;2023-05-10T09:27:35;1.83;;;1.58;;
54464;SDS011;40374;49.480;20.016;2023-05-10T09:30:03;4.07;;;1.70;;
54464;SDS011;40374;49.480;20.016;2023-05-10T09:35:16;10.23;;;2.08;;
54464;SDS011;40374;49.480;20.016;2023-05-10T09:37:47;2.85;;;2.15;;
54464;SDS011;40374;49.480;20.016;2023-05-10T09:40:16;6.32;;;2.33;;
54464;SDS011;40374;49.480;20.016;2023-05-10T09:42:54;2.92;;;1.83;;
54464;SDS011;40374;49.480;20.016;2023-05-10T09:45:22;3.25;;;1.80;;
54464;SDS011;40374;49.480;20.016;2023-05-10T09:47:51;3.45;;;1.75;;
54464;SDS011;40374;49.480;20.016;2023-05-10T09:50:19;4.18;;;1.80;;
54464;SDS011;40374;49.480;20.016;2023-05-10T09:52:48;6.13;;;1.70;;
54464;SDS011;40374;49.480;20.016;2023-05-10T09:58:03;2.65;;;1.83;;
54464;SDS011;40374;49.480;20.016;2023-05-10T10:00:35;3.63;;;1.70;;
54464;SDS011;40374;49.480;20.016;2023-05-10T10:03:05;8.68;;;1.73;;
54464;SDS011;40374;49.480;20.016;2023-05-10T10:05:33;3.72;;;1.90;;
54464;SDS011;40374;49.480;20.016;2023-05-10T10:08:03;6.72;;;1.92;;
54464;SDS011;40374;49.480;20.016;2023-05-10T10:10:31;3.00;;;2.17;;
54464;SDS011;40374;49.480;20.016;2023-05-10T10:13:01;4.97;;;2.05;;
54464;SDS011;40374;49.480;20.016;2023-05-10T10:15:28;3.60;;;2.13;;
54464;SDS011;40374;49.480;20.016;2023-05-10T10:17:56;4.38;;;1.83;;
54464;SDS011;40374;49.480;20.016;2023-05-10T10:20:23;7.85;;;2.28;;
54464;SDS011;40374;49.480;20.016;2023-05-10T10:22:52;3.58;;;1.77;;
54464;SDS011;40374;49.480;20.016;2023-05-10T10:25:20;4.97;;;2.38;;
54464;SDS011;40374;49.480;20.016;2023-05-10T10:30:35;4.22;;;1.95;;
54464;SDS011;40374;49.480;20.016;2023-05-10T10:41:29;3.58;;;1.70;;
54464;SDS011;40374;49.480;20.016;2023-05-10T10:52:12;2.10;;;1.90;;
54464;SDS011;40374;49.480;20.016;2023-05-10T11:00:23;2.03;;;1.63;;
54464;SDS011;40374;49.480;20.016;2023-05-10T11:03:13;4.60;;;1.75;;
54464;SDS011;40374;49.480;20.016;2023-05-10T11:05:42;2.70;;;1.77;;
54464;SDS011;40374;49.480;20.016;2023-05-10T11:10:52;3.58;;;1.90;;
54464;SDS011;40374;49.480;20.016;2023-05-10T11:16:20;5.25;;;1.65;;
54464;SDS011;40374;49.480;20.016;2023-05-10T11:21:32;4.15;;;1.80;;
54464;SDS011;40374;49.480;20.016;2023-05-10T11:24:01;4.05;;;1.70;;
54464;SDS011;40374;49.480;20.016;2023-05-10T11:26:36;10.73;;;2.33;;
54464;SDS011;40374;49.480;20.016;2023-05-10T11:29:04;5.97;;;2.25;;
54464;SDS011;40374;49.480;20.016;2023-05-10T11:31:32;4.07;;;2.22;;
54464;SDS011;40374;49.480;20.016;2023-05-10T11:34:00;2.35;;;2.15;;
54464;SDS011;40374;49.480;20.016;2023-05-10T11:36:34;3.65;;;2.03;;
54464;SDS011;40374;49.480;20.016;2023-05-10T11:39:03;5.10;;;1.75;;
54464;SDS011;40374;49.480;20.016;2023-05-10T11:41:31;2.78;;;2.17;;
54464;SDS011;40374;49.480;20.016;2023-05-10T11:43:58;7.15;;;1.83;;
54464;SDS011;40374;49.480;20.016;2023-05-10T11:46:26;5.10;;;2.17;;
54464;SDS011;40374;49.480;20.016;2023-05-10T11:48:57;3.92;;;1.63;;
54464;SDS011;40374;49.480;20.016;2023-05-10T11:51:34;4.47;;;2.20;;
54464;SDS011;40374;49.480;20.016;2023-05-10T11:54:07;3.90;;;1.95;;
54464;SDS011;40374;49.480;20.016;2023-05-10T11:56:37;4.05;;;1.90;;
54464;SDS011;40374;49.480;20.016;2023-05-10T11:59:05;5.45;;;2.00;;
54464;SDS011;40374;49.480;20.016;2023-05-10T12:01:33;2.20;;;1.80;;
54464;SDS011;40374;49.480;20.016;2023-05-10T12:04:02;6.70;;;2.25;;
54464;SDS011;40374;49.480;20.016;2023-05-10T12:06:31;9.32;;;1.75;;
54464;SDS011;40374;49.480;20.016;2023-05-10T12:09:05;5.47;;;1.77;;
54464;SDS011;40374;49.480;20.016;2023-05-10T12:11:36;3.05;;;2.05;;
54464;SDS011;40374;49.480;20.016;2023-05-10T12:14:09;3.83;;;1.95;;
54464;SDS011;40374;49.480;20.016;2023-05-10T12:16:37;5.07;;;2.00;;
54464;SDS011;40374;49.480;20.016;2023-05-10T12:19:04;7.35;;;1.90;;
54464;SDS011;40374;49.480;20.016;2023-05-10T12:21:32;8.02;;;1.90;;
54464;SDS011;40374;49.480;20.016;2023-05-10T12:24:03;2.55;;;2.00;;
54464;SDS011;40374;49.480;20.016;2023-05-10T12:26:32;2.83;;;1.73;;
54464;SDS011;40374;49.480;20.016;2023-05-10T12:29:12;3.47;;;1.60;;
54464;SDS011;40374;49.480;20.016;2023-05-10T12:31:51;5.35;;;1.90;;
54464;SDS011;40374;49.480;20.016;2023-05-10T12:34:29;4.95;;;1.67;;
54464;SDS011;40374;49.480;20.016;2023-05-10T12:36:58;5.70;;;1.60;;
54464;SDS011;40374;49.480;20.016;2023-05-10T12:39:49;2.63;;;1.90;;
54464;SDS011;40374;49.480;20.016;2023-05-10T12:42:15;4.13;;;2.30;;
54464;SDS011;40374;49.480;20.016;2023-05-10T12:44:43;3.38;;;1.67;;
54464;SDS011;40374;49.480;20.016;2023-05-10T12:47:12;10.32;;;2.15;;
54464;SDS011;40374;49.480;20.016;2023-05-10T12:49:39;6.63;;;1.70;;
54464;SDS011;40374;49.480;20.016;2023-05-10T12:52:07;2.90;;;1.77;;
54464;SDS011;40374;49.480;20.016;2023-05-10T12:54:34;7.95;;;1.55;;
54464;SDS011;40374;49.480;20.016;2023-05-10T12:57:03;2.78;;;1.80;;
54464;SDS011;40374;49.480;20.016;2023-05-10T12:59:31;6.40;;;2.08;;
54464;SDS011;40374;49.480;20.016;2023-05-10T13:01:59;6.72;;;1.63;;
54464;SDS011;40374;49.480;20.016;2023-05-10T13:04:26;5.10;;;2.00;;
54464;SDS011;40374;49.480;20.016;2023-05-10T13:06:54;3.33;;;1.88;;
54464;SDS011;40374;49.480;20.016;2023-05-10T13:09:26;4.32;;;2.05;;
54464;SDS011;40374;49.480;20.016;2023-05-10T13:11:55;6.50;;;1.80;;
54464;SDS011;40374;49.480;20.016;2023-05-10T13:14:23;2.60;;;1.70;;
54464;SDS011;40374;49.480;20.016;2023-05-10T13:16:52;3.47;;;1.90;;
54464;SDS011;40374;49.480;20.016;2023-05-10T13:19:19;2.40;;;1.75;;
54464;SDS011;40374;49.480;20.016;2023-05-10T13:21:47;2.47;;;1.85;;
54464;SDS011;40374;49.480;20.016;2023-05-10T13:24:14;9.93;;;1.73;;
54464;SDS011;40374;49.480;20.016;2023-05-10T13:26:42;3.53;;;1.58;;
54464;SDS011;40374;49.480;20.016;2023-05-10T13:29:10;4.88;;;1.83;;
54464;SDS011;40374;49.480;20.016;2023-05-10T13:31:38;4.13;;;2.03;;
54464;SDS011;40374;49.480;20.016;2023-05-10T13:34:06;5.15;;;1.70;;
54464;SDS011;40374;49.480;20.016;2023-05-10T13:36:34;8.98;;;2.20;;
54464;SDS011;40374;49.480;20.016;2023-05-10T13:39:01;3.35;;;1.90;;
54464;SDS011;40374;49.480;20.016;2023-05-10T13:41:30;1.77;;;1.63;;
54464;SDS011;40374;49.480;20.016;2023-05-10T13:44:01;4.15;;;1.88;;
54464;SDS011;40374;49.480;20.016;2023-05-10T13:46:29;3.97;;;1.50;;
54464;SDS011;40374;49.480;20.016;2023-05-10T13:48:58;3.20;;;1.50;;
54464;SDS011;40374;49.480;20.016;2023-05-10T13:51:26;3.63;;;1.90;;
54464;SDS011;40374;49.480;20.016;2023-05-10T13:53:53;5.85;;;2.00;;
54464;SDS011;40374;49.480;20.016;2023-05-10T13:56:41;5.65;;;1.80;;
54464;SDS011;40374;49.480;20.016;2023-05-10T13:59:09;12.15;;;2.00;;
54464;SDS011;40374;49.480;20.016;2023-05-10T14:01:37;4.88;;;1.77;;
54464;SDS011;40374;49.480;20.016;2023-05-10T14:04:05;4.20;;;1.50;;
54464;SDS011;40374;49.480;20.016;2023-05-10T14:06:37;6.30;;;1.92;;
54464;SDS011;40374;49.480;20.016;2023-05-10T14:09:05;5.07;;;1.80;;
54464;SDS011;40374;49.480;20.016;2023-05-10T14:11:35;2.33;;;1.77;;
54464;SDS011;40374;49.480;20.016;2023-05-10T14:14:03;8.07;;;1.63;;
54464;SDS011;40374;49.480;20.016;2023-05-10T14:16:32;4.68;;;1.90;;
54464;SDS011;40374;49.480;20.016;2023-05-10T14:19:00;7.20;;;1.90;;
54464;SDS011;40374;49.480;20.016;2023-05-10T14:21:27;7.32;;;2.20;;
54464;SDS011;40374;49.480;20.016;2023-05-10T14:23:56;3.35;;;1.70;;
54464;SDS011;40374;49.480;20.016;2023-05-10T14:26:25;5.50;;;1.80;;
54464;SDS011;40374;49.480;20.016;2023-05-10T14:28:53;1.90;;;1.70;;
54464;SDS011;40374;49.480;20.016;2023-05-10T14:31:21;2.60;;;1.58;;
54464;SDS011;40374;49.480;20.016;2023-05-10T14:33:50;4.53;;;1.85;;
54464;SDS011;40374;49.480;20.016;2023-05-10T14:36:17;3.60;;;1.65;;
54464;SDS011;40374;49.480;20.016;2023-05-10T14:38:45;6.28;;;1.70;;
54464;SDS011;40374;49.480;20.016;2023-05-10T14:41:15;3.13;;;1.52;;
54464;SDS011;40374;49.480;20.016;2023-05-10T14:43:44;4.10;;;1.85;;
54464;SDS011;40374;49.480;20.016;2023-05-10T14:46:11;2.20;;;1.80;;
54464;SDS011;40374;49.480;20.016;2023-05-10T14:48:39;3.58;;;1.80;;
54464;SDS011;40374;49.480;20.016;2023-05-10T14:51:07;3.53;;;2.30;;
54464;SDS011;40374;49.480;20.016;2023-05-10T14:56:21;4.28;;;2.03;;
54464;SDS011;40374;49.480;20.016;2023-05-10T14:58:50;2.08;;;1.83;;
54464;SDS011;40374;49.480;20.016;2023-05-10T15:01:18;6.07;;;2.00;;
54464;SDS011;40374;49.480;20.016;2023-05-10T15:03:47;5.97;;;1.90;;
54464;SDS011;40374;49.480;20.016;2023-05-10T15:06:15;5.28;;;2.70;;
54464;SDS011;40374;49.480;20.016;2023-05-10T15:08:44;3.53;;;2.38;;
54464;SDS011;40374;49.480;20.016;2023-05-10T15:11:11;9.52;;;2.95;;
54464;SDS011;40374;49.480;20.016;2023-05-10T15:13:40;5.75;;;3.25;;
54464;SDS011;40374;49.480;20.016;2023-05-10T15:16:07;10.05;;;3.40;;
54464;SDS011;40374;49.480;20.016;2023-05-10T15:18:35;11.45;;;3.53;;
54464;SDS011;40374;49.480;20.016;2023-05-10T15:21:03;8.82;;;3.00;;
54464;SDS011;40374;49.480;20.016;2023-05-10T15:23:30;6.57;;;2.42;;
54464;SDS011;40374;49.480;20.016;2023-05-10T15:25:59;4.63;;;2.20;;
54464;SDS011;40374;49.480;20.016;2023-05-10T15:28:27;3.83;;;2.30;;
54464;SDS011;40374;49.480;20.016;2023-05-10T15:30:55;4.32;;;2.13;;
54464;SDS011;40374;49.480;20.016;2023-05-10T15:33:23;10.13;;;2.38;;
54464;SDS011;40374;49.480;20.016;2023-05-10T15:35:51;9.68;;;3.03;;